sensor_id;sensor_type;location;lat;lon;timestamp;temperature;humidity
45579;DHT22;31293;51.390;12.254;2023-06-26T00:02:00;25.30;73.60
45579;DHT22;31293;51.390;12.254;2023-06-26T00:04:01;25.20;73.40
45579;DHT22;31293;51.390;12.254;2023-06-26T00:06:04;25.20;73.90
45579;DHT22;31293;51.390;12.254;2023-06-26T00:08:06;25.20;73.70
45579;DHT22;31293;51.390;12.254;2023-06-26T00:10:08;25.20;73.80
45579;DHT22;31293;51.390;12.254;2023-06-26T00:12:10;25.20;73.50
45579;DHT22;31293;51.390;12.254;2023-06-26T00:14:11;25.20;73.90
45579;DHT22;31293;51.390;12.254;2023-06-26T00:16:13;25.20;73.80
45579;DHT22;31293;51.390;12.254;2023-06-26T00:18:15;25.20;74.00
45579;DHT22;31293;51.390;12.254;2023-06-26T00:20:17;25.20;74.20
45579;DHT22;31293;51.390;12.254;2023-06-26T00:22:21;25.20;74.20
45579;DHT22;31293;51.390;12.254;2023-06-26T00:24:23;25.20;74.10
45579;DHT22;31293;51.390;12.254;2023-06-26T00:26:25;25.20;73.90
45579;DHT22;31293;51.390;12.254;2023-06-26T00:28:27;25.20;74.30
45579;DHT22;31293;51.390;12.254;2023-06-26T00:30:28;25.30;74.60
45579;DHT22;31293;51.390;12.254;2023-06-26T00:32:30;25.20;74.80
45579;DHT22;31293;51.390;12.254;2023-06-26T00:34:32;25.20;74.60
45579;DHT22;31293;51.390;12.254;2023-06-26T00:36:33;25.20;74.70
45579;DHT22;31293;51.390;12.254;2023-06-26T00:38:35;25.20;74.70
45579;DHT22;31293;51.390;12.254;2023-06-26T00:40:37;25.20;74.70
45579;DHT22;31293;51.390;12.254;2023-06-26T00:42:39;25.20;74.60
45579;DHT22;31293;51.390;12.254;2023-06-26T00:44:41;25.10;75.10
45579;DHT22;31293;51.390;12.254;2023-06-26T00:46:42;25.10;74.40
45579;DHT22;31293;51.390;12.254;2023-06-26T00:48:46;25.10;74.30
45579;DHT22;31293;51.390;12.254;2023-06-26T00:50:49;25.10;74.30
45579;DHT22;31293;51.390;12.254;2023-06-26T00:52:51;25.10;74.30
45579;DHT22;31293;51.390;12.254;2023-06-26T00:54:52;25.10;74.60
45579;DHT22;31293;51.390;12.254;2023-06-26T00:56:54;25.10;74.90
45579;DHT22;31293;51.390;12.254;2023-06-26T00:58:56;25.10;74.70
45579;DHT22;31293;51.390;12.254;2023-06-26T01:00:58;25.10;74.70
45579;DHT22;31293;51.390;12.254;2023-06-26T01:03:00;25.10;74.60
45579;DHT22;31293;51.390;12.254;2023-06-26T01:05:02;25.10;75.10
45579;DHT22;31293;51.390;12.254;2023-06-26T01:07:08;25.10;74.70
45579;DHT22;31293;51.390;12.254;2023-06-26T01:09:10;25.10;74.80
45579;DHT22;31293;51.390;12.254;2023-06-26T01:11:13;25.10;74.80
45579;DHT22;31293;51.390;12.254;2023-06-26T01:13:16;25.10;75.20
45579;DHT22;31293;51.390;12.254;2023-06-26T01:15:17;25.10;75.30
45579;DHT22;31293;51.390;12.254;2023-06-26T01:17:20;25.10;75.50
45579;DHT22;31293;51.390;12.254;2023-06-26T01:19:27;25.10;75.70
45579;DHT22;31293;51.390;12.254;2023-06-26T01:21:30;25.10;74.80
45579;DHT22;31293;51.390;12.254;2023-06-26T01:23:55;25.10;75.10
45579;DHT22;31293;51.390;12.254;2023-06-26T01:28:13;25.10;74.80
45579;DHT22;31293;51.390;12.254;2023-06-26T01:30:16;25.10;74.70
45579;DHT22;31293;51.390;12.254;2023-06-26T01:32:19;25.10;74.70
45579;DHT22;31293;51.390;12.254;2023-06-26T01:34:21;25.10;74.80
45579;DHT22;31293;51.390;12.254;2023-06-26T01:36:23;25.10;75.30
45579;DHT22;31293;51.390;12.254;2023-06-26T01:38:24;25.10;74.50
45579;DHT22;31293;51.390;12.254;2023-06-26T01:40:27;25.00;74.10
45579;DHT22;31293;51.390;12.254;2023-06-26T01:42:29;25.10;74.30
45579;DHT22;31293;51.390;12.254;2023-06-26T01:44:35;25.00;74.10
45579;DHT22;31293;51.390;12.254;2023-06-26T01:46:51;25.00;74.10
45579;DHT22;31293;51.390;12.254;2023-06-26T01:53:57;25.00;73.80
45579;DHT22;31293;51.390;12.254;2023-06-26T01:56:11;25.00;73.70
45579;DHT22;31293;51.390;12.254;2023-06-26T01:58:14;25.00;74.00
45579;DHT22;31293;51.390;12.254;2023-06-26T02:00:19;25.10;74.00
45579;DHT22;31293;51.390;12.254;2023-06-26T02:02:25;25.00;73.90
45579;DHT22;31293;51.390;12.254;2023-06-26T02:04:27;25.00;73.90
45579;DHT22;31293;51.390;12.254;2023-06-26T02:06:29;25.00;74.30
45579;DHT22;31293;51.390;12.254;2023-06-26T02:08:31;25.00;74.30
45579;DHT22;31293;51.390;12.254;2023-06-26T02:10:33;25.00;74.10
45579;DHT22;31293;51.390;12.254;2023-06-26T02:12:35;25.00;74.00
45579;DHT22;31293;51.390;12.254;2023-06-26T02:14:37;25.00;74.30
45579;DHT22;31293;51.390;12.254;2023-06-26T02:16:39;25.00;74.40
45579;DHT22;31293;51.390;12.254;2023-06-26T02:18:41;25.00;74.30
45579;DHT22;31293;51.390;12.254;2023-06-26T02:20:43;25.00;74.30
45579;DHT22;31293;51.390;12.254;2023-06-26T02:22:45;25.00;74.20
45579;DHT22;31293;51.390;12.254;2023-06-26T02:24:47;25.00;74.30
45579;DHT22;31293;51.390;12.254;2023-06-26T02:26:48;25.00;74.30
45579;DHT22;31293;51.390;12.254;2023-06-26T02:28:51;25.00;74.50
45579;DHT22;31293;51.390;12.254;2023-06-26T02:30:52;25.00;74.50
45579;DHT22;31293;51.390;12.254;2023-06-26T02:32:54;25.00;74.50
45579;DHT22;31293;51.390;12.254;2023-06-26T02:34:56;25.00;74.40
45579;DHT22;31293;51.390;12.254;2023-06-26T02:36:58;25.00;74.40
45579;DHT22;31293;51.390;12.254;2023-06-26T02:39:00;24.90;74.30
45579;DHT22;31293;51.390;12.254;2023-06-26T02:41:01;24.90;74.10
45579;DHT22;31293;51.390;12.254;2023-06-26T02:43:03;24.90;74.00
45579;DHT22;31293;51.390;12.254;2023-06-26T02:45:05;24.90;74.00
45579;DHT22;31293;51.390;12.254;2023-06-26T02:47:07;24.90;74.30
45579;DHT22;31293;51.390;12.254;2023-06-26T02:49:09;24.90;74.00
45579;DHT22;31293;51.390;12.254;2023-06-26T02:51:11;24.90;74.00
45579;DHT22;31293;51.390;12.254;2023-06-26T02:53:13;24.90;73.80
45579;DHT22;31293;51.390;12.254;2023-06-26T02:55:14;24.90;73.90
45579;DHT22;31293;51.390;12.254;2023-06-26T02:57:16;24.90;74.00
45579;DHT22;31293;51.390;12.254;2023-06-26T02:59:18;24.90;73.90
45579;DHT22;31293;51.390;12.254;2023-06-26T03:01:20;24.90;73.90
45579;DHT22;31293;51.390;12.254;2023-06-26T03:03:22;24.90;73.70
45579;DHT22;31293;51.390;12.254;2023-06-26T03:05:24;24.90;73.60
45579;DHT22;31293;51.390;12.254;2023-06-26T03:07:26;24.90;73.60
45579;DHT22;31293;51.390;12.254;2023-06-26T03:09:28;24.90;73.40
45579;DHT22;31293;51.390;12.254;2023-06-26T03:11:30;24.90;73.50
45579;DHT22;31293;51.390;12.254;2023-06-26T03:13:35;24.90;73.30
45579;DHT22;31293;51.390;12.254;2023-06-26T03:15:37;24.90;73.20
45579;DHT22;31293;51.390;12.254;2023-06-26T03:17:39;24.90;73.00
45579;DHT22;31293;51.390;12.254;2023-06-26T03:19:41;24.90;73.00
45579;DHT22;31293;51.390;12.254;2023-06-26T03:21:42;24.90;73.00
45579;DHT22;31293;51.390;12.254;2023-06-26T03:23:44;24.90;73.50
45579;DHT22;31293;51.390;12.254;2023-06-26T03:25:47;24.90;74.10
45579;DHT22;31293;51.390;12.254;2023-06-26T03:27:49;24.90;74.40
45579;DHT22;31293;51.390;12.254;2023-06-26T03:29:51;24.90;74.10
45579;DHT22;31293;51.390;12.254;2023-06-26T03:31:53;24.90;73.80
45579;DHT22;31293;51.390;12.254;2023-06-26T03:33:55;24.90;74.20
45579;DHT22;31293;51.390;12.254;2023-06-26T03:35:57;24.80;74.30
45579;DHT22;31293;51.390;12.254;2023-06-26T03:37:59;24.90;74.60
45579;DHT22;31293;51.390;12.254;2023-06-26T03:40:02;24.90;74.90
45579;DHT22;31293;51.390;12.254;2023-06-26T03:42:06;24.80;74.10
45579;DHT22;31293;51.390;12.254;2023-06-26T03:44:08;24.80;74.20
45579;DHT22;31293;51.390;12.254;2023-06-26T03:46:10;24.80;74.10
45579;DHT22;31293;51.390;12.254;2023-06-26T03:48:12;24.90;74.30
45579;DHT22;31293;51.390;12.254;2023-06-26T03:50:15;24.90;74.20
45579;DHT22;31293;51.390;12.254;2023-06-26T03:52:16;24.80;74.00
45579;DHT22;31293;51.390;12.254;2023-06-26T03:54:18;24.90;74.10
45579;DHT22;31293;51.390;12.254;2023-06-26T03:56:20;24.90;74.10
45579;DHT22;31293;51.390;12.254;2023-06-26T03:58:22;24.90;74.00
45579;DHT22;31293;51.390;12.254;2023-06-26T04:00:23;24.90;73.80
45579;DHT22;31293;51.390;12.254;2023-06-26T04:02:25;24.90;74.20
45579;DHT22;31293;51.390;12.254;2023-06-26T04:04:27;24.90;74.30
45579;DHT22;31293;51.390;12.254;2023-06-26T04:06:29;24.90;74.20
45579;DHT22;31293;51.390;12.254;2023-06-26T04:08:32;24.90;74.50
45579;DHT22;31293;51.390;12.254;2023-06-26T04:10:34;24.90;74.40
45579;DHT22;31293;51.390;12.254;2023-06-26T04:12:37;24.90;74.50
45579;DHT22;31293;51.390;12.254;2023-06-26T04:14:39;25.00;74.70
45579;DHT22;31293;51.390;12.254;2023-06-26T04:16:41;25.00;75.30
45579;DHT22;31293;51.390;12.254;2023-06-26T04:18:42;25.00;75.40
45579;DHT22;31293;51.390;12.254;2023-06-26T04:21:11;25.00;75.80
45579;DHT22;31293;51.390;12.254;2023-06-26T04:23:13;25.10;76.20
45579;DHT22;31293;51.390;12.254;2023-06-26T04:25:17;25.00;76.30
45579;DHT22;31293;51.390;12.254;2023-06-26T04:27:20;25.00;76.50
45579;DHT22;31293;51.390;12.254;2023-06-26T04:29:29;25.00;76.50
45579;DHT22;31293;51.390;12.254;2023-06-26T04:31:30;25.00;76.70
45579;DHT22;31293;51.390;12.254;2023-06-26T04:33:32;25.00;75.90
45579;DHT22;31293;51.390;12.254;2023-06-26T04:35:34;25.00;76.50
45579;DHT22;31293;51.390;12.254;2023-06-26T04:37:38;25.00;76.50
45579;DHT22;31293;51.390;12.254;2023-06-26T04:39:40;24.90;76.20
45579;DHT22;31293;51.390;12.254;2023-06-26T04:41:44;25.00;76.80
45579;DHT22;31293;51.390;12.254;2023-06-26T04:43:46;24.90;76.60
45579;DHT22;31293;51.390;12.254;2023-06-26T04:45:47;24.90;75.90
45579;DHT22;31293;51.390;12.254;2023-06-26T04:47:49;24.90;75.90
45579;DHT22;31293;51.390;12.254;2023-06-26T04:49:51;24.90;76.00
45579;DHT22;31293;51.390;12.254;2023-06-26T04:51:53;24.90;75.80
45579;DHT22;31293;51.390;12.254;2023-06-26T04:53:55;24.80;75.20
45579;DHT22;31293;51.390;12.254;2023-06-26T04:55:57;24.80;74.60
45579;DHT22;31293;51.390;12.254;2023-06-26T04:57:58;24.80;75.20
45579;DHT22;31293;51.390;12.254;2023-06-26T05:00:00;24.80;75.30
45579;DHT22;31293;51.390;12.254;2023-06-26T05:02:02;24.80;75.20
45579;DHT22;31293;51.390;12.254;2023-06-26T05:04:05;24.90;75.20
45579;DHT22;31293;51.390;12.254;2023-06-26T05:06:07;24.90;75.10
45579;DHT22;31293;51.390;12.254;2023-06-26T05:08:21;24.90;75.20
45579;DHT22;31293;51.390;12.254;2023-06-26T05:10:23;25.00;75.10
45579;DHT22;31293;51.390;12.254;2023-06-26T05:12:25;25.00;75.10
45579;DHT22;31293;51.390;12.254;2023-06-26T05:14:27;25.00;75.20
45579;DHT22;31293;51.390;12.254;2023-06-26T05:16:29;25.00;75.40
45579;DHT22;31293;51.390;12.254;2023-06-26T05:18:30;25.10;75.50
45579;DHT22;31293;51.390;12.254;2023-06-26T05:20:32;25.00;75.40
45579;DHT22;31293;51.390;12.254;2023-06-26T05:22:34;25.00;75.20
45579;DHT22;31293;51.390;12.254;2023-06-26T05:24:37;25.00;75.30
45579;DHT22;31293;51.390;12.254;2023-06-26T05:26:40;25.10;75.50
45579;DHT22;31293;51.390;12.254;2023-06-26T05:28:42;25.10;75.90
45579;DHT22;31293;51.390;12.254;2023-06-26T05:30:48;25.10;75.60
45579;DHT22;31293;51.390;12.254;2023-06-26T05:32:51;25.10;75.90
45579;DHT22;31293;51.390;12.254;2023-06-26T05:34:54;25.10;75.80
45579;DHT22;31293;51.390;12.254;2023-06-26T05:37:00;25.10;75.70
45579;DHT22;31293;51.390;12.254;2023-06-26T05:39:03;25.10;75.70
45579;DHT22;31293;51.390;12.254;2023-06-26T05:41:05;25.10;75.60
45579;DHT22;31293;51.390;12.254;2023-06-26T05:43:07;25.10;75.40
45579;DHT22;31293;51.390;12.254;2023-06-26T05:45:10;25.10;75.50
45579;DHT22;31293;51.390;12.254;2023-06-26T05:47:11;25.10;75.50
45579;DHT22;31293;51.390;12.254;2023-06-26T05:49:13;25.10;75.40
45579;DHT22;31293;51.390;12.254;2023-06-26T05:51:16;25.10;75.30
45579;DHT22;31293;51.390;12.254;2023-06-26T05:53:18;25.10;75.20
45579;DHT22;31293;51.390;12.254;2023-06-26T05:55:20;25.10;75.20
45579;DHT22;31293;51.390;12.254;2023-06-26T05:57:22;25.10;74.90
45579;DHT22;31293;51.390;12.254;2023-06-26T05:59:24;25.10;74.90
45579;DHT22;31293;51.390;12.254;2023-06-26T06:01:26;25.10;75.20
45579;DHT22;31293;51.390;12.254;2023-06-26T06:03:27;25.10;75.00
45579;DHT22;31293;51.390;12.254;2023-06-26T06:05:29;25.10;74.80
45579;DHT22;31293;51.390;12.254;2023-06-26T06:07:32;25.10;74.60
45579;DHT22;31293;51.390;12.254;2023-06-26T06:09:34;25.10;74.50
45579;DHT22;31293;51.390;12.254;2023-06-26T06:11:36;25.10;74.40
45579;DHT22;31293;51.390;12.254;2023-06-26T06:13:38;25.10;74.60
45579;DHT22;31293;51.390;12.254;2023-06-26T06:15:40;25.10;74.60
45579;DHT22;31293;51.390;12.254;2023-06-26T06:17:42;25.10;74.60
45579;DHT22;31293;51.390;12.254;2023-06-26T06:19:45;25.10;74.50
45579;DHT22;31293;51.390;12.254;2023-06-26T06:21:46;25.10;74.40
45579;DHT22;31293;51.390;12.254;2023-06-26T06:23:48;25.10;74.40
45579;DHT22;31293;51.390;12.254;2023-06-26T06:25:50;25.10;74.40
45579;DHT22;31293;51.390;12.254;2023-06-26T06:27:52;25.10;74.40
45579;DHT22;31293;51.390;12.254;2023-06-26T06:29:53;25.10;74.40
45579;DHT22;31293;51.390;12.254;2023-06-26T06:31:55;25.10;74.30
45579;DHT22;31293;51.390;12.254;2023-06-26T06:33:57;25.20;74.40
45579;DHT22;31293;51.390;12.254;2023-06-26T06:35:59;25.10;74.90
45579;DHT22;31293;51.390;12.254;2023-06-26T06:38:01;25.20;74.40
45579;DHT22;31293;51.390;12.254;2023-06-26T06:40:03;25.20;74.50
45579;DHT22;31293;51.390;12.254;2023-06-26T06:42:05;25.20;74.50
45579;DHT22;31293;51.390;12.254;2023-06-26T06:44:07;25.20;74.50
45579;DHT22;31293;51.390;12.254;2023-06-26T06:46:09;25.20;74.40
45579;DHT22;31293;51.390;12.254;2023-06-26T06:48:11;25.20;74.40
45579;DHT22;31293;51.390;12.254;2023-06-26T06:50:12;25.20;74.30
45579;DHT22;31293;51.390;12.254;2023-06-26T06:52:15;25.20;74.30
45579;DHT22;31293;51.390;12.254;2023-06-26T06:54:17;25.20;74.30
45579;DHT22;31293;51.390;12.254;2023-06-26T06:56:18;25.20;74.30
45579;DHT22;31293;51.390;12.254;2023-06-26T06:58:20;25.20;74.30
45579;DHT22;31293;51.390;12.254;2023-06-26T07:00:22;25.20;74.30
45579;DHT22;31293;51.390;12.254;2023-06-26T07:02:25;25.20;74.50
45579;DHT22;31293;51.390;12.254;2023-06-26T07:04:26;25.20;74.70
45579;DHT22;31293;51.390;12.254;2023-06-26T07:06:29;25.20;74.60
45579;DHT22;31293;51.390;12.254;2023-06-26T07:08:31;25.20;74.50
45579;DHT22;31293;51.390;12.254;2023-06-26T07:10:33;25.20;74.50
45579;DHT22;31293;51.390;12.254;2023-06-26T07:12:35;25.20;74.40
45579;DHT22;31293;51.390;12.254;2023-06-26T07:14:37;25.20;74.40
45579;DHT22;31293;51.390;12.254;2023-06-26T07:16:38;25.20;74.30
45579;DHT22;31293;51.390;12.254;2023-06-26T07:18:40;25.20;74.30
45579;DHT22;31293;51.390;12.254;2023-06-26T07:20:42;25.30;74.40
45579;DHT22;31293;51.390;12.254;2023-06-26T07:22:44;25.30;74.40
45579;DHT22;31293;51.390;12.254;2023-06-26T07:24:48;25.20;74.30
45579;DHT22;31293;51.390;12.254;2023-06-26T07:26:50;25.30;74.40
45579;DHT22;31293;51.390;12.254;2023-06-26T07:28:52;25.30;74.40
45579;DHT22;31293;51.390;12.254;2023-06-26T07:30:54;25.30;74.40
45579;DHT22;31293;51.390;12.254;2023-06-26T07:32:56;25.30;74.30
45579;DHT22;31293;51.390;12.254;2023-06-26T07:34:58;25.30;74.40
45579;DHT22;31293;51.390;12.254;2023-06-26T07:36:59;25.30;74.40
45579;DHT22;31293;51.390;12.254;2023-06-26T07:39:01;25.30;74.30
45579;DHT22;31293;51.390;12.254;2023-06-26T07:41:03;25.30;74.30
45579;DHT22;31293;51.390;12.254;2023-06-26T07:43:05;25.30;74.20
45579;DHT22;31293;51.390;12.254;2023-06-26T07:45:07;25.30;74.20
45579;DHT22;31293;51.390;12.254;2023-06-26T07:47:12;25.30;74.20
45579;DHT22;31293;51.390;12.254;2023-06-26T07:49:14;25.30;74.20
45579;DHT22;31293;51.390;12.254;2023-06-26T07:51:16;25.30;74.20
45579;DHT22;31293;51.390;12.254;2023-06-26T07:53:18;25.30;74.20
45579;DHT22;31293;51.390;12.254;2023-06-26T07:55:19;25.30;74.20
45579;DHT22;31293;51.390;12.254;2023-06-26T07:57:21;25.30;74.40
45579;DHT22;31293;51.390;12.254;2023-06-26T07:59:25;25.40;74.30
45579;DHT22;31293;51.390;12.254;2023-06-26T08:01:27;25.30;74.20
45579;DHT22;31293;51.390;12.254;2023-06-26T08:03:29;25.30;74.20
45579;DHT22;31293;51.390;12.254;2023-06-26T08:05:36;25.40;74.30
45579;DHT22;31293;51.390;12.254;2023-06-26T08:07:38;25.40;74.40
45579;DHT22;31293;51.390;12.254;2023-06-26T08:09:40;25.40;74.50
45579;DHT22;31293;51.390;12.254;2023-06-26T08:11:43;25.40;74.40
45579;DHT22;31293;51.390;12.254;2023-06-26T08:13:45;25.40;74.50
45579;DHT22;31293;51.390;12.254;2023-06-26T08:15:47;25.40;74.50
45579;DHT22;31293;51.390;12.254;2023-06-26T08:17:48;25.40;74.40
45579;DHT22;31293;51.390;12.254;2023-06-26T08:19:52;25.40;74.50
45579;DHT22;31293;51.390;12.254;2023-06-26T08:21:54;25.40;74.60
45579;DHT22;31293;51.390;12.254;2023-06-26T08:23:56;25.40;74.60
45579;DHT22;31293;51.390;12.254;2023-06-26T08:25:57;25.40;74.60
45579;DHT22;31293;51.390;12.254;2023-06-26T08:28:00;25.40;74.60
45579;DHT22;31293;51.390;12.254;2023-06-26T08:30:02;25.40;74.70
45579;DHT22;31293;51.390;12.254;2023-06-26T08:32:04;25.40;74.70
45579;DHT22;31293;51.390;12.254;2023-06-26T08:34:08;25.40;74.70
45579;DHT22;31293;51.390;12.254;2023-06-26T08:36:10;25.40;74.70
45579;DHT22;31293;51.390;12.254;2023-06-26T08:38:11;25.40;74.80
45579;DHT22;31293;51.390;12.254;2023-06-26T08:40:16;25.50;74.80
45579;DHT22;31293;51.390;12.254;2023-06-26T08:42:19;25.50;74.90
45579;DHT22;31293;51.390;12.254;2023-06-26T08:44:21;25.50;74.90
45579;DHT22;31293;51.390;12.254;2023-06-26T08:46:26;25.50;74.70
45579;DHT22;31293;51.390;12.254;2023-06-26T08:48:32;25.50;74.70
45579;DHT22;31293;51.390;12.254;2023-06-26T08:50:35;25.50;74.70
45579;DHT22;31293;51.390;12.254;2023-06-26T08:52:55;25.50;74.60
45579;DHT22;31293;51.390;12.254;2023-06-26T08:55:02;25.50;74.90
45579;DHT22;31293;51.390;12.254;2023-06-26T08:57:05;25.50;74.90
45579;DHT22;31293;51.390;12.254;2023-06-26T08:59:08;25.60;74.90
45579;DHT22;31293;51.390;12.254;2023-06-26T09:01:12;25.50;74.80
45579;DHT22;31293;51.390;12.254;2023-06-26T09:03:14;25.50;74.90
45579;DHT22;31293;51.390;12.254;2023-06-26T09:05:17;25.50;74.90
45579;DHT22;31293;51.390;12.254;2023-06-26T09:07:19;25.60;75.00
45579;DHT22;31293;51.390;12.254;2023-06-26T09:09:21;25.50;75.00
45579;DHT22;31293;51.390;12.254;2023-06-26T09:11:22;25.60;75.10
45579;DHT22;31293;51.390;12.254;2023-06-26T09:13:24;25.60;75.00
45579;DHT22;31293;51.390;12.254;2023-06-26T09:15:43;25.50;74.90
45579;DHT22;31293;51.390;12.254;2023-06-26T09:17:48;25.60;75.00
45579;DHT22;31293;51.390;12.254;2023-06-26T09:19:49;25.60;75.00
45579;DHT22;31293;51.390;12.254;2023-06-26T09:21:52;25.60;75.10
45579;DHT22;31293;51.390;12.254;2023-06-26T09:23:55;25.60;75.00
45579;DHT22;31293;51.390;12.254;2023-06-26T09:25:56;25.60;75.00
45579;DHT22;31293;51.390;12.254;2023-06-26T09:27:59;25.60;75.00
45579;DHT22;31293;51.390;12.254;2023-06-26T09:30:05;25.60;75.00
45579;DHT22;31293;51.390;12.254;2023-06-26T09:32:08;25.60;75.00
45579;DHT22;31293;51.390;12.254;2023-06-26T09:34:11;25.60;75.00
45579;DHT22;31293;51.390;12.254;2023-06-26T09:36:20;25.60;75.00
45579;DHT22;31293;51.390;12.254;2023-06-26T09:38:26;25.60;74.90
45579;DHT22;31293;51.390;12.254;2023-06-26T09:40:28;25.60;74.80
45579;DHT22;31293;51.390;12.254;2023-06-26T09:42:30;25.60;75.40
45579;DHT22;31293;51.390;12.254;2023-06-26T09:44:33;25.60;74.80
45579;DHT22;31293;51.390;12.254;2023-06-26T09:46:35;25.60;74.80
45579;DHT22;31293;51.390;12.254;2023-06-26T09:48:37;25.60;74.70
45579;DHT22;31293;51.390;12.254;2023-06-26T09:50:41;25.60;74.70
45579;DHT22;31293;51.390;12.254;2023-06-26T09:53:08;25.60;74.70
45579;DHT22;31293;51.390;12.254;2023-06-26T09:55:11;25.60;74.70
45579;DHT22;31293;51.390;12.254;2023-06-26T09:57:17;25.60;74.60
45579;DHT22;31293;51.390;12.254;2023-06-26T09:59:19;25.60;74.50
45579;DHT22;31293;51.390;12.254;2023-06-26T10:01:21;25.60;74.50
45579;DHT22;31293;51.390;12.254;2023-06-26T10:03:23;25.60;74.40
45579;DHT22;31293;51.390;12.254;2023-06-26T10:05:26;25.60;74.40
45579;DHT22;31293;51.390;12.254;2023-06-26T10:07:28;25.60;74.30
45579;DHT22;31293;51.390;12.254;2023-06-26T10:09:30;25.60;74.40
45579;DHT22;31293;51.390;12.254;2023-06-26T10:11:49;25.60;74.30
45579;DHT22;31293;51.390;12.254;2023-06-26T10:13:54;25.60;74.30
45579;DHT22;31293;51.390;12.254;2023-06-26T10:16:23;25.60;74.40
45579;DHT22;31293;51.390;12.254;2023-06-26T10:18:27;25.60;74.90
45579;DHT22;31293;51.390;12.254;2023-06-26T10:20:30;25.60;74.20
45579;DHT22;31293;51.390;12.254;2023-06-26T10:22:37;25.70;74.30
45579;DHT22;31293;51.390;12.254;2023-06-26T10:24:41;25.60;74.20
45579;DHT22;31293;51.390;12.254;2023-06-26T10:26:45;25.70;74.30
45579;DHT22;31293;51.390;12.254;2023-06-26T10:28:48;25.70;74.20
45579;DHT22;31293;51.390;12.254;2023-06-26T10:30:54;25.70;74.20
45579;DHT22;31293;51.390;12.254;2023-06-26T10:32:56;25.70;74.30
45579;DHT22;31293;51.390;12.254;2023-06-26T10:34:59;25.70;74.30
45579;DHT22;31293;51.390;12.254;2023-06-26T10:37:04;25.70;74.30
45579;DHT22;31293;51.390;12.254;2023-06-26T10:39:06;25.70;74.20
45579;DHT22;31293;51.390;12.254;2023-06-26T10:41:11;25.70;74.20
45579;DHT22;31293;51.390;12.254;2023-06-26T10:43:14;25.70;74.20
45579;DHT22;31293;51.390;12.254;2023-06-26T10:45:19;25.70;74.20
45579;DHT22;31293;51.390;12.254;2023-06-26T10:47:30;25.60;74.10
45579;DHT22;31293;51.390;12.254;2023-06-26T10:49:38;25.70;74.10
45579;DHT22;31293;51.390;12.254;2023-06-26T10:51:48;25.70;74.10
45579;DHT22;31293;51.390;12.254;2023-06-26T10:53:57;25.70;74.00
45579;DHT22;31293;51.390;12.254;2023-06-26T10:56:05;25.70;74.00
45579;DHT22;31293;51.390;12.254;2023-06-26T11:00:32;25.70;74.00
45579;DHT22;31293;51.390;12.254;2023-06-26T11:02:47;25.70;74.00
45579;DHT22;31293;51.390;12.254;2023-06-26T11:04:50;25.60;73.90
45579;DHT22;31293;51.390;12.254;2023-06-26T11:07:18;25.70;74.00
45579;DHT22;31293;51.390;12.254;2023-06-26T11:09:24;25.70;73.90
45579;DHT22;31293;51.390;12.254;2023-06-26T11:13:52;25.70;73.90
45579;DHT22;31293;51.390;12.254;2023-06-26T11:15:56;25.70;74.00
45579;DHT22;31293;51.390;12.254;2023-06-26T11:17:58;25.70;74.00
45579;DHT22;31293;51.390;12.254;2023-06-26T11:20:00;25.70;74.10
45579;DHT22;31293;51.390;12.254;2023-06-26T11:22:05;25.70;74.10
45579;DHT22;31293;51.390;12.254;2023-06-26T11:24:09;25.70;74.20
45579;DHT22;31293;51.390;12.254;2023-06-26T11:26:17;25.70;74.20
45579;DHT22;31293;51.390;12.254;2023-06-26T11:28:21;25.70;74.30
45579;DHT22;31293;51.390;12.254;2023-06-26T11:30:24;25.70;74.30
45579;DHT22;31293;51.390;12.254;2023-06-26T11:32:26;25.70;74.40
45579;DHT22;31293;51.390;12.254;2023-06-26T11:34:30;25.70;74.40
45579;DHT22;31293;51.390;12.254;2023-06-26T11:36:32;25.70;74.50
45579;DHT22;31293;51.390;12.254;2023-06-26T11:38:38;25.70;74.60
45579;DHT22;31293;51.390;12.254;2023-06-26T11:40:40;25.70;74.60
45579;DHT22;31293;51.390;12.254;2023-06-26T11:42:44;25.70;74.70
45579;DHT22;31293;51.390;12.254;2023-06-26T11:44:46;25.70;74.80
45579;DHT22;31293;51.390;12.254;2023-06-26T11:46:51;25.70;74.70
45579;DHT22;31293;51.390;12.254;2023-06-26T11:48:54;25.70;74.80
45579;DHT22;31293;51.390;12.254;2023-06-26T11:50:56;25.80;75.00
45579;DHT22;31293;51.390;12.254;2023-06-26T11:52:59;25.80;75.00
45579;DHT22;31293;51.390;12.254;2023-06-26T11:55:03;25.80;75.00
45579;DHT22;31293;51.390;12.254;2023-06-26T11:57:05;25.70;75.00
45579;DHT22;31293;51.390;12.254;2023-06-26T11:59:11;25.70;75.00
45579;DHT22;31293;51.390;12.254;2023-06-26T12:01:16;25.80;75.10
45579;DHT22;31293;51.390;12.254;2023-06-26T12:03:18;25.80;75.10
45579;DHT22;31293;51.390;12.254;2023-06-26T12:05:21;25.80;75.20
45579;DHT22;31293;51.390;12.254;2023-06-26T12:07:23;25.80;75.20
45579;DHT22;31293;51.390;12.254;2023-06-26T12:09:25;25.80;75.10
45579;DHT22;31293;51.390;12.254;2023-06-26T12:11:28;25.80;75.20
45579;DHT22;31293;51.390;12.254;2023-06-26T12:13:32;25.80;75.20
45579;DHT22;31293;51.390;12.254;2023-06-26T12:15:34;25.80;75.20
45579;DHT22;31293;51.390;12.254;2023-06-26T12:17:39;25.80;75.20
45579;DHT22;31293;51.390;12.254;2023-06-26T12:19:47;25.70;75.50
45579;DHT22;31293;51.390;12.254;2023-06-26T12:21:52;25.80;75.30
45579;DHT22;31293;51.390;12.254;2023-06-26T12:24:00;25.80;75.40
45579;DHT22;31293;51.390;12.254;2023-06-26T12:26:20;25.80;75.40
45579;DHT22;31293;51.390;12.254;2023-06-26T12:28:22;25.80;75.40
45579;DHT22;31293;51.390;12.254;2023-06-26T12:30:24;25.80;75.40
45579;DHT22;31293;51.390;12.254;2023-06-26T12:32:26;25.80;75.50
45579;DHT22;31293;51.390;12.254;2023-06-26T12:34:34;25.80;75.40
45579;DHT22;31293;51.390;12.254;2023-06-26T12:36:46;25.80;75.40
45579;DHT22;31293;51.390;12.254;2023-06-26T12:38:48;25.80;75.50
45579;DHT22;31293;51.390;12.254;2023-06-26T12:40:50;25.80;75.40
45579;DHT22;31293;51.390;12.254;2023-06-26T12:42:53;25.80;75.40
45579;DHT22;31293;51.390;12.254;2023-06-26T12:44:55;25.80;75.40
45579;DHT22;31293;51.390;12.254;2023-06-26T12:47:01;25.80;75.50
45579;DHT22;31293;51.390;12.254;2023-06-26T12:49:05;25.80;75.50
45579;DHT22;31293;51.390;12.254;2023-06-26T12:51:22;25.80;75.50
45579;DHT22;31293;51.390;12.254;2023-06-26T12:53:28;25.80;75.50
45579;DHT22;31293;51.390;12.254;2023-06-26T12:55:30;25.80;75.50
45579;DHT22;31293;51.390;12.254;2023-06-26T12:57:31;25.80;75.60
45579;DHT22;31293;51.390;12.254;2023-06-26T12:59:35;25.80;76.10